createdAt,value
2022-12-31T00:00:15.629Z,1100.9
2022-12-31T00:01:59.329Z,1097.8
2022-12-31T00:03:43.017Z,1095.4
2022-12-31T00:05:26.742Z,1091.9
2022-12-31T00:07:10.444Z,1087.3
2022-12-31T00:08:54.141Z,1083.6
2022-12-31T00:10:37.826Z,1082.7
2022-12-31T00:12:21.597Z,1082.4
2022-12-31T00:14:05.275Z,1081.1
2022-12-31T00:15:48.944Z,1079.1
2022-12-31T00:17:32.653Z,1073.3
2022-12-31T00:19:16.375Z,1070.1
2022-12-31T00:21:00.085Z,1066.9
2022-12-31T00:22:45.285Z,1062.6
2022-12-31T00:24:27.451Z,1062.1
2022-12-31T00:26:11.172Z,1060.4
2022-12-31T00:27:54.882Z,1058.2
2022-12-31T00:29:38.560Z,1054.5
2022-12-31T00:31:22.310Z,1050.8
2022-12-31T00:33:05.964Z,1051.4
2022-12-31T00:34:49.686Z,1049
2022-12-31T00:36:33.392Z,1044.3
2022-12-31T00:38:17.084Z,1043.9
2022-12-31T00:40:00.777Z,1044.5
2022-12-31T00:41:44.606Z,1041.9
2022-12-31T00:43:28.217Z,1039
2022-12-31T00:45:11.880Z,1035.5
2022-12-31T00:46:55.703Z,1034.5
2022-12-31T00:48:39.337Z,1034.7
2022-12-31T00:50:23.070Z,1031.5
2022-12-31T00:52:06.724Z,1030.3
2022-12-31T00:53:50.488Z,1026.1
2022-12-31T00:55:34.123Z,1023.7
2022-12-31T00:57:17.830Z,1020.6
2022-12-31T00:59:01.552Z,1018.2
2022-12-31T01:00:45.218Z,1019.2
2022-12-31T01:02:28.934Z,1016.4
2022-12-31T01:04:12.636Z,1016
2022-12-31T01:05:56.321Z,1015.3
2022-12-31T01:07:40.032Z,1015.9
2022-12-31T01:09:23.744Z,1015.4
2022-12-31T01:11:07.451Z,1012.8
2022-12-31T01:12:51.139Z,1008.7
2022-12-31T01:14:34.921Z,1005.5
2022-12-31T01:16:18.560Z,999.5
2022-12-31T01:18:02.244Z,995.4
2022-12-31T01:19:45.973Z,990.4
2022-12-31T01:21:29.670Z,988.7
2022-12-31T01:23:13.418Z,988.5
2022-12-31T01:24:57.107Z,987.3
2022-12-31T01:26:40.789Z,987
2022-12-31T01:28:24.464Z,985.2
2022-12-31T01:30:08.187Z,981.8
2022-12-31T01:31:51.901Z,976.9
2022-12-31T01:33:35.571Z,977.3
2022-12-31T01:35:19.287Z,976.9
2022-12-31T01:37:02.975Z,979.7
2022-12-31T01:38:46.680Z,975.5
2022-12-31T01:40:30.390Z,976.1
2022-12-31T01:42:14.107Z,977.8
2022-12-31T01:43:57.800Z,978.9
2022-12-31T01:45:41.504Z,977.6
2022-12-31T01:47:25.194Z,974.1
2022-12-31T01:49:08.904Z,970
2022-12-31T01:50:52.611Z,969.5
2022-12-31T01:52:36.387Z,971.2
2022-12-31T01:54:20.001Z,969.4
2022-12-31T01:56:03.736Z,966.2
2022-12-31T01:57:47.460Z,965.6
2022-12-31T01:59:31.102Z,963.5
2022-12-31T02:01:14.883Z,962.2
2022-12-31T02:02:58.513Z,958.5
2022-12-31T02:04:42.224Z,954.5
2022-12-31T02:06:25.927Z,949.8
2022-12-31T02:08:09.619Z,947.1
2022-12-31T02:09:53.319Z,943.9
2022-12-31T02:11:37.038Z,943.9
2022-12-31T02:13:20.741Z,943
2022-12-31T02:15:04.435Z,942.9
2022-12-31T02:16:48.131Z,941.5
2022-12-31T02:18:31.838Z,941
2022-12-31T02:20:15.547Z,936.9
2022-12-31T02:21:59.251Z,937.4
2022-12-31T02:23:42.936Z,935.4
2022-12-31T02:25:26.633Z,933.7
2022-12-31T02:27:10.370Z,930.7
2022-12-31T02:28:54.055Z,930.7
2022-12-31T02:30:37.757Z,929.4
2022-12-31T02:32:21.449Z,924.2
2022-12-31T02:34:05.154Z,920
2022-12-31T02:35:48.850Z,916.9
2022-12-31T02:37:32.569Z,916
2022-12-31T02:39:16.259Z,913.5
2022-12-31T02:40:59.979Z,913.3
2022-12-31T02:42:43.678Z,911.1
2022-12-31T02:44:27.431Z,910.8
2022-12-31T02:46:11.081Z,909.9
2022-12-31T02:47:54.772Z,908
2022-12-31T02:49:38.463Z,906.5
2022-12-31T02:51:22.183Z,905
2022-12-31T02:53:05.871Z,904.1
2022-12-31T02:54:49.577Z,904.6
2022-12-31T02:56:33.282Z,900.9
2022-12-31T02:58:16.970Z,899.8
2022-12-31T03:00:00.749Z,899
2022-12-31T03:01:44.373Z,899.6
2022-12-31T03:03:28.061Z,896.5
2022-12-31T03:05:11.778Z,894.5
2022-12-31T03:06:55.477Z,893
2022-12-31T03:08:39.206Z,891.9
2022-12-31T03:10:22.865Z,888.8
2022-12-31T03:12:06.570Z,890.5
2022-12-31T03:13:50.287Z,890.4
2022-12-31T03:15:33.968Z,890.9
2022-12-31T03:17:17.669Z,891.1
2022-12-31T03:19:01.372Z,888.9
2022-12-31T03:20:45.081Z,885.8
2022-12-31T03:22:28.778Z,886
2022-12-31T03:24:12.485Z,885.5
2022-12-31T03:25:56.184Z,883.3
2022-12-31T03:27:39.886Z,882.2
2022-12-31T03:29:23.580Z,879.6
2022-12-31T03:31:07.284Z,878.8
2022-12-31T03:32:50.975Z,879.2
2022-12-31T03:34:34.694Z,877
2022-12-31T03:36:18.476Z,873.7
2022-12-31T03:38:02.134Z,872.2
2022-12-31T03:39:45.788Z,873.3
2022-12-31T03:41:29.515Z,870.7
2022-12-31T03:43:13.191Z,866.5
2022-12-31T03:44:56.897Z,867.4
2022-12-31T03:46:40.613Z,866.1
2022-12-31T03:48:24.309Z,867.6
2022-12-31T03:50:08.062Z,863.5
2022-12-31T03:51:51.706Z,865.3
2022-12-31T03:53:35.414Z,866
2022-12-31T03:55:19.134Z,863.4
2022-12-31T03:57:02.829Z,863.2
2022-12-31T03:58:46.515Z,864
2022-12-31T04:00:30.227Z,862.6
2022-12-31T04:02:13.917Z,858.8
2022-12-31T04:03:57.647Z,855.6
2022-12-31T04:05:41.344Z,857.7
2022-12-31T04:07:25.024Z,860.3
2022-12-31T04:09:08.731Z,860
2022-12-31T04:10:52.534Z,859.7
2022-12-31T04:12:36.136Z,859.8
2022-12-31T04:14:19.885Z,861.3
2022-12-31T04:16:03.636Z,863.3
2022-12-31T04:17:47.226Z,866
2022-12-31T04:19:30.923Z,866.2
2022-12-31T04:21:14.645Z,863.9
2022-12-31T04:22:58.323Z,862.1
2022-12-31T04:24:42.039Z,863.2
2022-12-31T04:26:25.749Z,863.4
2022-12-31T04:28:09.466Z,861.4
2022-12-31T04:29:53.136Z,856.9
2022-12-31T04:31:36.969Z,857
2022-12-31T04:33:20.558Z,858.7
2022-12-31T04:35:04.305Z,858.3
2022-12-31T04:36:47.967Z,859.7
2022-12-31T04:38:31.655Z,860.4
2022-12-31T04:40:15.339Z,858.2
2022-12-31T04:41:59.062Z,858.9
2022-12-31T04:43:42.757Z,856.7
2022-12-31T04:45:26.502Z,856.9
2022-12-31T04:47:10.170Z,852
2022-12-31T04:48:53.864Z,850.4
2022-12-31T04:50:37.561Z,846.9
2022-12-31T04:52:21.248Z,845.9
2022-12-31T04:54:04.952Z,846
2022-12-31T04:55:48.659Z,846.5
2022-12-31T04:57:32.340Z,847.4
2022-12-31T04:59:16.075Z,844.9
2022-12-31T05:00:59.756Z,845.7
2022-12-31T05:02:43.492Z,845.8
2022-12-31T05:04:27.224Z,843.1
2022-12-31T05:06:10.843Z,842.6
2022-12-31T05:07:54.568Z,846.3
2022-12-31T05:09:38.264Z,849
2022-12-31T05:11:21.959Z,850
2022-12-31T05:13:05.659Z,846.2
2022-12-31T05:14:49.413Z,847.6
2022-12-31T05:16:33.069Z,846.7
2022-12-31T05:18:16.765Z,840.9
2022-12-31T05:20:00.475Z,838.7
2022-12-31T05:21:44.218Z,836.8
2022-12-31T05:23:27.870Z,837
2022-12-31T05:25:11.578Z,838
2022-12-31T05:26:55.267Z,837.5
2022-12-31T05:28:38.972Z,838.3
2022-12-31T05:30:22.687Z,835.9
2022-12-31T05:32:06.388Z,832.4
2022-12-31T05:33:50.088Z,832.7
2022-12-31T05:35:33.798Z,831.2
2022-12-31T05:37:17.485Z,828.9
2022-12-31T05:39:01.191Z,826.6
2022-12-31T05:40:44.901Z,826.6
2022-12-31T05:42:28.609Z,823.9
2022-12-31T05:44:12.298Z,824.7
2022-12-31T05:45:55.994Z,825.4
2022-12-31T05:47:39.699Z,824.8
2022-12-31T05:49:23.412Z,823.5
2022-12-31T05:51:07.089Z,820.2
2022-12-31T05:52:50.808Z,818.8
2022-12-31T05:54:34.516Z,821.4
2022-12-31T05:56:18.226Z,822.1
2022-12-31T05:58:01.899Z,825.1
2022-12-31T05:59:45.605Z,825.3
2022-12-31T06:01:29.320Z,824.4
2022-12-31T06:03:13.014Z,823
2022-12-31T06:04:56.710Z,823.2
2022-12-31T06:06:40.416Z,822.4
2022-12-31T06:08:24.118Z,820
2022-12-31T06:10:07.824Z,819.2
2022-12-31T06:11:51.553Z,820.6
2022-12-31T06:13:35.215Z,817
2022-12-31T06:15:18.925Z,816.3
2022-12-31T06:17:02.645Z,817.7
2022-12-31T06:18:46.337Z,818.3
2022-12-31T06:20:30.033Z,815.4
2022-12-31T06:22:13.737Z,816.9
2022-12-31T06:23:57.425Z,821.6
2022-12-31T06:25:41.143Z,824.1
2022-12-31T06:27:24.832Z,826
2022-12-31T06:29:08.540Z,829.3
2022-12-31T06:30:52.230Z,833.2
2022-12-31T06:32:35.941Z,833.4
2022-12-31T06:34:19.724Z,832
2022-12-31T06:36:03.341Z,833.3
2022-12-31T06:39:30.827Z,832.3
2022-12-31T06:41:14.448Z,835.2
2022-12-31T06:42:58.171Z,833.5
2022-12-31T06:44:41.839Z,833.6
2022-12-31T06:46:25.570Z,832.7
2022-12-31T06:48:09.253Z,831.3
2022-12-31T06:49:52.964Z,830.5
2022-12-31T06:51:36.741Z,830.9
2022-12-31T06:53:20.349Z,832.9
2022-12-31T06:55:04.070Z,830
2022-12-31T06:56:47.786Z,831
2022-12-31T06:58:31.443Z,833.1
2022-12-31T07:00:15.170Z,830.8
2022-12-31T07:01:58.863Z,828.5
2022-12-31T07:03:42.575Z,826.4
2022-12-31T07:05:26.268Z,823.9
2022-12-31T07:07:09.974Z,822.7
2022-12-31T07:08:53.716Z,820.1
2022-12-31T07:10:37.374Z,819.2
2022-12-31T07:12:21.057Z,821.2
2022-12-31T07:17:32.264Z,824.7
2022-12-31T07:19:15.908Z,825
2022-12-31T07:20:59.586Z,824.5
2022-12-31T07:22:43.306Z,828.3
2022-12-31T07:24:27.035Z,827.9
2022-12-31T07:26:10.683Z,825.3
2022-12-31T07:27:54.430Z,827.5
2022-12-31T07:29:38.089Z,827.9
2022-12-31T07:31:21.781Z,826
2022-12-31T07:33:05.530Z,826.1
2022-12-31T07:34:49.255Z,825.6
2022-12-31T07:36:32.963Z,822.5
2022-12-31T07:38:16.599Z,821.3
2022-12-31T07:40:00.323Z,822.5
2022-12-31T07:41:43.994Z,822.8
2022-12-31T07:43:27.701Z,824.5
2022-12-31T07:45:18.482Z,823.3
2022-12-31T07:46:55.098Z,823.7
2022-12-31T07:48:38.812Z,823.3
2022-12-31T07:50:22.503Z,824.1
2022-12-31T07:52:06.186Z,822.6
2022-12-31T07:53:52.028Z,819.5
2022-12-31T07:55:33.683Z,815.5
2022-12-31T07:57:17.302Z,815.8
2022-12-31T07:59:01.036Z,818.2
2022-12-31T08:00:44.740Z,820.5
2022-12-31T08:02:28.517Z,819.9
2022-12-31T08:04:12.228Z,821.4
2022-12-31T08:05:55.894Z,821.5
2022-12-31T08:07:39.496Z,825.3
2022-12-31T08:09:23.238Z,826.1
2022-12-31T08:11:06.971Z,822.8
2022-12-31T08:12:50.609Z,827.3
2022-12-31T08:14:34.325Z,829.7
2022-12-31T08:16:18.018Z,830.4
2022-12-31T08:18:01.763Z,827.4
2022-12-31T08:19:45.415Z,827.8
2022-12-31T08:21:29.139Z,829.2
2022-12-31T08:23:12.835Z,825.9
2022-12-31T08:24:56.623Z,825.6
2022-12-31T08:26:40.215Z,824.7
2022-12-31T08:28:23.918Z,826.7
2022-12-31T08:30:07.761Z,829.6
2022-12-31T08:31:51.376Z,831.6
2022-12-31T08:37:02.427Z,835.5
2022-12-31T08:38:46.150Z,834.7
2022-12-31T08:40:34.816Z,835
2022-12-31T08:42:13.540Z,835.6
2022-12-31T08:43:57.427Z,842.6
2022-12-31T08:45:40.961Z,852.3
2022-12-31T08:47:24.665Z,865
2022-12-31T08:49:08.359Z,873.4
2022-12-31T08:50:52.062Z,880.2
2022-12-31T08:52:35.759Z,890.4
2022-12-31T08:54:19.462Z,904.2
2022-12-31T08:56:03.185Z,918.4
2022-12-31T08:57:46.885Z,938.5
2022-12-31T08:59:30.551Z,955.3
2022-12-31T09:01:14.253Z,969.8
2022-12-31T09:02:58.018Z,972.6
2022-12-31T09:04:41.665Z,974.8
2022-12-31T09:06:25.367Z,972.7
2022-12-31T09:08:09.080Z,970.9
2022-12-31T09:09:52.775Z,970.2
2022-12-31T09:11:36.474Z,971.6
2022-12-31T09:13:20.176Z,976.7
2022-12-31T09:15:03.898Z,980.3
2022-12-31T09:16:47.620Z,985.5
2022-12-31T09:18:31.280Z,989
2022-12-31T09:20:15.193Z,993.5
2022-12-31T09:21:58.763Z,996.7
2022-12-31T09:23:42.410Z,1001.6
2022-12-31T09:25:26.103Z,1007
2022-12-31T09:27:09.870Z,1010
2022-12-31T09:28:53.531Z,1015.1
2022-12-31T09:30:37.235Z,1020.7
2022-12-31T09:32:20.916Z,1019.3
2022-12-31T09:34:04.679Z,1019.1
2022-12-31T09:35:48.500Z,1013.6
2022-12-31T09:37:32.061Z,1009.6
2022-12-31T09:39:15.772Z,1007.1
2022-12-31T09:40:59.437Z,1006
2022-12-31T09:42:43.404Z,1002.2
2022-12-31T09:44:26.920Z,1002
2022-12-31T09:46:10.600Z,1001.6
2022-12-31T09:47:54.248Z,1002.3
2022-12-31T09:49:38.037Z,998.6
2022-12-31T09:51:21.643Z,994.5
2022-12-31T09:53:05.367Z,991.6
2022-12-31T09:54:49.049Z,992.1
2022-12-31T09:56:32.756Z,991.2
2022-12-31T09:58:16.533Z,988.3
2022-12-31T10:00:00.165Z,983.6
2022-12-31T10:01:43.889Z,979.6
2022-12-31T10:03:27.650Z,978.4
2022-12-31T10:05:11.280Z,976.2
2022-12-31T10:06:55.079Z,971.7
2022-12-31T10:08:38.675Z,970.2
2022-12-31T10:10:22.373Z,969.8
2022-12-31T10:12:06.071Z,958.4
2022-12-31T10:13:49.789Z,820.3
2022-12-31T10:15:33.482Z,587.4
2022-12-31T10:17:17.166Z,542.9
2022-12-31T10:19:00.885Z,566.5
2022-12-31T10:20:44.590Z,647.4
2022-12-31T10:22:28.361Z,696.8
2022-12-31T10:24:12.017Z,699.5
2022-12-31T10:25:55.789Z,709.2
2022-12-31T10:27:39.372Z,716.7
2022-12-31T10:29:23.104Z,725.3
2022-12-31T10:31:06.773Z,729.5
2022-12-31T10:32:50.478Z,734.1
2022-12-31T10:34:34.176Z,738.7
2022-12-31T10:36:17.897Z,741.2
2022-12-31T10:38:01.645Z,738.3
2022-12-31T10:39:45.337Z,739.9
2022-12-31T10:41:29.049Z,735.8
2022-12-31T10:43:12.830Z,736.4
2022-12-31T10:44:56.424Z,740.3
2022-12-31T10:46:40.106Z,737.3
2022-12-31T10:48:23.806Z,735.6
2022-12-31T10:50:07.484Z,728.6
2022-12-31T10:51:51.254Z,724.1
2022-12-31T10:53:34.917Z,724.7
2022-12-31T10:55:18.588Z,725.6
2022-12-31T10:57:02.386Z,725.2
2022-12-31T11:00:29.689Z,729.2
2022-12-31T11:02:13.483Z,727.8
2022-12-31T11:03:57.088Z,729.4
2022-12-31T11:05:40.865Z,729.9
2022-12-31T11:07:24.506Z,728.4
2022-12-31T11:09:08.239Z,726.5
2022-12-31T11:10:51.892Z,729.9
2022-12-31T11:12:35.635Z,732.7
2022-12-31T11:14:19.318Z,734.8
2022-12-31T11:16:03.004Z,736.7
2022-12-31T11:17:46.681Z,737.6
2022-12-31T11:19:30.397Z,737
2022-12-31T11:21:14.105Z,737.8
2022-12-31T11:22:57.828Z,740
2022-12-31T11:24:41.516Z,742.2
2022-12-31T11:26:25.237Z,741.5
2022-12-31T11:28:08.913Z,740.3
2022-12-31T11:29:52.604Z,742.1
2022-12-31T11:31:36.350Z,743.8
2022-12-31T11:33:20.025Z,743.2
2022-12-31T11:35:03.804Z,740.7
2022-12-31T11:36:47.455Z,738.3
2022-12-31T11:38:31.242Z,738.5
2022-12-31T11:40:14.860Z,739.8
2022-12-31T11:41:58.573Z,740
2022-12-31T11:43:42.415Z,741
2022-12-31T11:45:25.962Z,740
2022-12-31T11:47:09.682Z,740
2022-12-31T11:48:53.384Z,736.3
2022-12-31T11:50:37.076Z,735.1
2022-12-31T11:52:20.767Z,734
2022-12-31T11:54:04.511Z,734.7
2022-12-31T11:55:48.157Z,732.7
2022-12-31T11:57:31.880Z,733.8
2022-12-31T11:59:15.565Z,733.2
2022-12-31T12:00:59.358Z,730.9
2022-12-31T12:02:42.967Z,732.5
2022-12-31T12:04:26.722Z,731.7
2022-12-31T12:06:10.429Z,729.2
2022-12-31T12:07:54.065Z,729.3
2022-12-31T12:09:37.826Z,725.3
2022-12-31T12:11:21.451Z,725.1
2022-12-31T12:13:05.148Z,728.5
2022-12-31T12:14:48.965Z,729.7
2022-12-31T12:16:32.583Z,731.2
2022-12-31T12:18:16.259Z,737.3
2022-12-31T12:19:59.998Z,742.5
2022-12-31T12:21:43.643Z,745.9
2022-12-31T12:23:27.443Z,747.3
2022-12-31T12:25:11.112Z,748.7
2022-12-31T12:26:54.837Z,747.8
2022-12-31T12:28:38.473Z,752.4
2022-12-31T12:30:22.208Z,755.2
2022-12-31T12:32:05.880Z,761.2
2022-12-31T12:33:49.571Z,777.2
2022-12-31T12:35:33.352Z,786.4
2022-12-31T12:37:16.981Z,791.3
2022-12-31T12:39:00.776Z,794.2
2022-12-31T12:40:44.427Z,800.4
2022-12-31T12:42:28.130Z,806.4
2022-12-31T12:44:11.781Z,813.7
2022-12-31T12:45:55.585Z,819.9
2022-12-31T12:47:39.302Z,822.6
2022-12-31T12:49:22.909Z,825.1
2022-12-31T12:51:06.735Z,829.6
2022-12-31T12:52:50.305Z,835.1
2022-12-31T12:54:34.019Z,839.4
2022-12-31T12:56:17.791Z,838
2022-12-31T12:58:01.420Z,839.9
2022-12-31T12:59:45.111Z,840.8
2022-12-31T13:01:28.932Z,839.4
2022-12-31T13:03:12.520Z,836.7
2022-12-31T13:04:56.210Z,836.8
2022-12-31T13:06:39.913Z,833
2022-12-31T13:08:23.711Z,829.4
2022-12-31T13:10:07.327Z,830.6
2022-12-31T13:11:51.108Z,834.7
2022-12-31T13:13:34.810Z,836.5
2022-12-31T13:15:18.525Z,836
2022-12-31T13:17:02.218Z,837.1
2022-12-31T13:18:45.834Z,838.2
2022-12-31T13:20:29.547Z,842
2022-12-31T13:22:13.271Z,844.6
2022-12-31T13:23:56.976Z,852
2022-12-31T13:25:40.750Z,863.2
2022-12-31T13:27:24.413Z,871.2
2022-12-31T13:29:08.118Z,875.8
2022-12-31T13:30:51.836Z,883.3
2022-12-31T13:32:35.457Z,903.8
2022-12-31T13:34:19.172Z,939.9
2022-12-31T13:36:02.920Z,944.6
2022-12-31T13:37:46.563Z,948.6
2022-12-31T13:39:30.329Z,952.6
2022-12-31T13:41:13.950Z,955.2
2022-12-31T13:42:57.673Z,958
2022-12-31T13:44:41.383Z,962.2
2022-12-31T13:46:25.093Z,964.7
2022-12-31T13:48:08.772Z,972.4
2022-12-31T13:49:52.566Z,976.7
2022-12-31T13:51:36.195Z,980.2
2022-12-31T13:53:19.862Z,985.3
2022-12-31T13:55:03.581Z,989.6
2022-12-31T13:56:47.389Z,995.6
2022-12-31T13:58:30.954Z,999.9
2022-12-31T14:00:14.678Z,1003.4
2022-12-31T14:01:58.387Z,1005.3
2022-12-31T14:03:42.130Z,1005.6
2022-12-31T14:05:25.777Z,1005.6
2022-12-31T14:07:09.561Z,1006.6
2022-12-31T14:08:53.167Z,1010.1
2022-12-31T14:10:36.884Z,1009.7
2022-12-31T14:12:20.580Z,1009.8
2022-12-31T14:14:04.265Z,1011.5
2022-12-31T14:15:48.047Z,1014.7
2022-12-31T14:17:31.682Z,1018
2022-12-31T14:19:15.407Z,1022.4
2022-12-31T14:20:59.082Z,1023.7
2022-12-31T14:22:42.815Z,1023.3
2022-12-31T14:24:26.504Z,1025.6
2022-12-31T14:26:10.226Z,1026.6
2022-12-31T14:27:53.916Z,1025.9
2022-12-31T14:29:37.594Z,1027.5
2022-12-31T14:31:21.301Z,1028.7
2022-12-31T14:33:05.020Z,1030.3
2022-12-31T14:34:49.018Z,1032.5
2022-12-31T14:36:32.490Z,1032.7
2022-12-31T14:38:16.115Z,1035.8
2022-12-31T14:39:59.830Z,1036.9
2022-12-31T14:41:43.530Z,1038.8
2022-12-31T14:43:27.230Z,1041.3
2022-12-31T14:45:10.956Z,1042.8
2022-12-31T14:46:54.653Z,1049.5
2022-12-31T14:48:38.426Z,1053
2022-12-31T14:50:22.044Z,1057.5
2022-12-31T14:52:05.728Z,1058.8
2022-12-31T14:53:49.448Z,1059.6
2022-12-31T14:55:33.199Z,1058.1
2022-12-31T14:57:16.859Z,1064.9
2022-12-31T14:59:00.535Z,1065.6
2022-12-31T15:00:44.273Z,1064.3
2022-12-31T15:02:27.958Z,1059.1
2022-12-31T15:04:11.731Z,1052.3
2022-12-31T15:05:55.417Z,1052.9
2022-12-31T15:07:39.064Z,1060.9
2022-12-31T15:09:22.773Z,1087.4
2022-12-31T15:11:06.602Z,1099.5
2022-12-31T15:12:50.276Z,1099.5
2022-12-31T15:14:33.921Z,1103.8
2022-12-31T15:16:17.687Z,1128.8
2022-12-31T15:18:01.427Z,1139.6
2022-12-31T15:19:45.054Z,1129.8
2022-12-31T15:21:28.663Z,1125.1
2022-12-31T15:23:12.370Z,1119.6
2022-12-31T15:24:56.190Z,1115.3
2022-12-31T15:26:39.772Z,1111.2
2022-12-31T15:28:23.504Z,1106.8
2022-12-31T15:30:07.181Z,1105.8
2022-12-31T15:31:50.902Z,1108.4
2022-12-31T15:33:34.635Z,1107.1
2022-12-31T15:35:18.293Z,1102.7
2022-12-31T15:37:01.977Z,1102.7
2022-12-31T15:38:45.719Z,1104.4
2022-12-31T15:40:29.390Z,1104.6
2022-12-31T15:42:13.082Z,1104.3
2022-12-31T15:43:56.828Z,1103.7
2022-12-31T15:45:40.492Z,1102.8
2022-12-31T15:47:24.193Z,1103.4
2022-12-31T15:49:07.902Z,1101.5
2022-12-31T15:50:51.673Z,1104.3
2022-12-31T15:52:35.310Z,1104
2022-12-31T15:54:19.004Z,1106.2
2022-12-31T15:56:02.802Z,1107.8
2022-12-31T15:57:46.414Z,1109.7
2022-12-31T15:59:30.138Z,1112.6
2022-12-31T16:01:13.904Z,1113.1
2022-12-31T16:02:57.533Z,1114.4
2022-12-31T16:04:41.240Z,1112.9
2022-12-31T16:06:24.963Z,1111.2
2022-12-31T16:08:08.694Z,1110.2
2022-12-31T16:09:52.359Z,1110.2
2022-12-31T16:11:36.066Z,1112.5
2022-12-31T16:13:19.754Z,1113.8
2022-12-31T16:15:03.463Z,1115.4
2022-12-31T16:16:47.161Z,1115.3
2022-12-31T16:18:30.919Z,1117.3
2022-12-31T16:20:14.577Z,1119.2
2022-12-31T16:21:58.340Z,1119.1
2022-12-31T16:23:41.967Z,1118
2022-12-31T16:25:25.665Z,1118.4
2022-12-31T16:27:09.358Z,1112.3
2022-12-31T16:28:53.066Z,1110.3
2022-12-31T16:30:36.834Z,1108.5
2022-12-31T16:32:20.470Z,1109.6
2022-12-31T16:34:04.174Z,1109.7
2022-12-31T16:35:47.885Z,1111.6
2022-12-31T16:37:31.590Z,1108.6
2022-12-31T16:39:15.295Z,1105.7
2022-12-31T16:40:58.977Z,1100.7
2022-12-31T16:42:42.708Z,1096.1
2022-12-31T16:44:26.386Z,1094
2022-12-31T16:46:10.091Z,1094.6
2022-12-31T16:47:53.827Z,1096.3
2022-12-31T16:49:37.520Z,1101.5
2022-12-31T16:51:21.196Z,1103.7
2022-12-31T16:53:04.886Z,1105.9
2022-12-31T16:54:48.579Z,1107.9
2022-12-31T16:56:32.298Z,1111.6
2022-12-31T16:58:15.996Z,1114.9
2022-12-31T16:59:59.684Z,1120.4
2022-12-31T17:01:43.398Z,1124.2
2022-12-31T17:03:27.108Z,1131.8
2022-12-31T17:05:10.854Z,1153.8
2022-12-31T17:06:54.589Z,1179.9
2022-12-31T17:08:38.211Z,1190.6
2022-12-31T17:10:21.973Z,1193.5
2022-12-31T17:12:05.619Z,1196.1
2022-12-31T17:13:49.333Z,1197.6
2022-12-31T17:15:33.084Z,1198.9
2022-12-31T17:17:16.773Z,1199
2022-12-31T17:19:00.566Z,1201.5
2022-12-31T17:20:44.165Z,1208
2022-12-31T17:22:27.967Z,1215.7
2022-12-31T17:24:11.543Z,1222.8
2022-12-31T17:25:55.233Z,1229.4
2022-12-31T17:27:38.936Z,1237.9
2022-12-31T17:29:22.643Z,1238.4
2022-12-31T17:31:06.401Z,1239.1
2022-12-31T17:32:50.056Z,1242.8
2022-12-31T17:34:33.729Z,1248.7
2022-12-31T17:36:17.451Z,1255.5
2022-12-31T17:38:01.153Z,1261.5
2022-12-31T17:39:44.836Z,1265
2022-12-31T17:41:28.588Z,1261
2022-12-31T17:43:12.286Z,1257.5
2022-12-31T17:44:55.961Z,1257.2
2022-12-31T17:46:39.649Z,1250.9
2022-12-31T17:48:23.448Z,1247.1
2022-12-31T17:50:07.057Z,1248.2
2022-12-31T17:51:50.871Z,1246.8
2022-12-31T17:55:18.172Z,1253.3
2022-12-31T17:57:01.911Z,1255.7
2022-12-31T17:58:45.596Z,1254
2022-12-31T18:00:29.377Z,1249.8
2022-12-31T18:02:13.046Z,1245.4
2022-12-31T18:03:56.745Z,1241.5
2022-12-31T18:05:40.428Z,1236
2022-12-31T18:07:24.083Z,1236.9
2022-12-31T18:09:07.791Z,1237
2022-12-31T18:10:51.495Z,1236.3
2022-12-31T18:12:35.175Z,1233.5
2022-12-31T18:14:18.887Z,1235.6
2022-12-31T18:16:02.619Z,1234.3
2022-12-31T18:17:46.298Z,1235
2022-12-31T18:19:30.008Z,1233.8
2022-12-31T18:21:13.696Z,1231.1
2022-12-31T18:22:57.404Z,1227.7
2022-12-31T18:24:41.096Z,1223.3
2022-12-31T18:26:24.945Z,1220.8
2022-12-31T18:28:08.521Z,1218
2022-12-31T18:29:52.190Z,1216.7
2022-12-31T18:31:35.974Z,1210.1
2022-12-31T18:33:19.592Z,1205.1
2022-12-31T18:35:03.313Z,1200.9
2022-12-31T18:36:47.091Z,1195
2022-12-31T18:38:30.753Z,1192.7
2022-12-31T18:40:14.504Z,1188.5
2022-12-31T18:41:58.140Z,1181.6
2022-12-31T18:43:41.902Z,1174.9
2022-12-31T18:45:25.564Z,1171.2
2022-12-31T18:47:09.514Z,1163.9
2022-12-31T18:48:52.947Z,1161.4
2022-12-31T18:50:36.639Z,1157
2022-12-31T18:52:20.312Z,1155.3
2022-12-31T18:54:04.029Z,1155.6
2022-12-31T18:55:47.737Z,1152.6
2022-12-31T18:57:31.468Z,1149.1
2022-12-31T18:59:15.138Z,1146.7
2022-12-31T19:00:58.944Z,1141.2
2022-12-31T19:02:42.559Z,1135.5
2022-12-31T19:04:26.262Z,1130.3
2022-12-31T19:06:09.965Z,1125.6
2022-12-31T19:07:53.659Z,1119.8
2022-12-31T19:09:37.365Z,1114.2
2022-12-31T19:11:21.077Z,1106.4
2022-12-31T19:13:04.809Z,1104.2
2022-12-31T19:14:48.609Z,1100.8
2022-12-31T19:16:32.174Z,1094.3
2022-12-31T19:18:15.918Z,1091.4
2022-12-31T19:19:59.645Z,1089.1
2022-12-31T19:21:43.285Z,1087.3
2022-12-31T19:23:27.019Z,1085.1
2022-12-31T19:25:10.701Z,1081.2
2022-12-31T19:26:54.411Z,1076.2
2022-12-31T19:28:38.087Z,1067.9
2022-12-31T19:30:21.783Z,1065.7
2022-12-31T19:32:05.687Z,1061.8
2022-12-31T19:33:49.219Z,1054.3
2022-12-31T19:35:32.915Z,1049.9
2022-12-31T19:37:16.717Z,1046.5
2022-12-31T19:39:00.427Z,1040
2022-12-31T19:40:44.080Z,1037.7
2022-12-31T19:42:27.779Z,1032.3
2022-12-31T19:44:11.431Z,1025.2
2022-12-31T19:45:55.195Z,1020.6
2022-12-31T19:49:22.533Z,1014.9
2022-12-31T19:51:06.322Z,1014.8
2022-12-31T19:52:49.935Z,1010.1
2022-12-31T19:54:33.685Z,1004.5
2022-12-31T19:56:17.377Z,996.8
2022-12-31T19:58:01.076Z,993.2
2022-12-31T19:59:44.752Z,990.1
2022-12-31T20:01:28.452Z,985.4
2022-12-31T20:03:12.147Z,981
2022-12-31T20:04:55.845Z,976.1
2022-12-31T20:06:39.559Z,971.6
2022-12-31T20:08:23.270Z,974
2022-12-31T20:10:06.965Z,969.5
2022-12-31T20:11:50.664Z,964.9
2022-12-31T20:13:34.359Z,963.2
2022-12-31T20:15:18.139Z,960.5
2022-12-31T20:17:01.825Z,954.6
2022-12-31T20:18:45.484Z,950.3
2022-12-31T20:20:29.153Z,946.5
2022-12-31T20:22:12.888Z,947
2022-12-31T20:23:56.574Z,946
2022-12-31T20:25:40.261Z,941.8
2022-12-31T20:27:24.068Z,939.7
2022-12-31T20:29:07.671Z,933.5
2022-12-31T20:30:51.398Z,927.8
2022-12-31T20:32:35.141Z,925.8
2022-12-31T20:34:18.857Z,919.7
2022-12-31T20:36:02.521Z,914
2022-12-31T20:37:46.225Z,911.3
2022-12-31T20:39:29.971Z,910.7
2022-12-31T20:41:13.612Z,907.2
2022-12-31T20:42:57.280Z,905.4
2022-12-31T20:44:40.981Z,905
2022-12-31T20:46:24.772Z,904.7
2022-12-31T20:48:08.767Z,903.6
2022-12-31T20:49:52.105Z,902.8
2022-12-31T20:51:35.897Z,900.1
2022-12-31T20:53:19.589Z,897.7
2022-12-31T20:55:03.351Z,893.3
2022-12-31T20:56:47.037Z,888.4
2022-12-31T20:58:30.722Z,884.1
2022-12-31T21:00:14.323Z,882.5
2022-12-31T21:01:57.990Z,880
2022-12-31T21:03:41.697Z,876.6
2022-12-31T21:05:25.436Z,876
2022-12-31T21:07:09.195Z,873.6
2022-12-31T21:08:52.832Z,868.9
2022-12-31T21:10:36.611Z,865.1
2022-12-31T21:12:20.277Z,864.6
2022-12-31T21:14:03.924Z,862.6
2022-12-31T21:15:47.628Z,862.9
2022-12-31T21:17:31.317Z,861.1
2022-12-31T21:19:15.034Z,857.2
2022-12-31T21:20:58.736Z,858
2022-12-31T21:22:42.468Z,858.7
2022-12-31T21:24:26.141Z,855.9
2022-12-31T21:26:09.871Z,853.3
2022-12-31T21:27:53.544Z,847.2
2022-12-31T21:29:37.329Z,843.7
2022-12-31T21:31:21.112Z,840.3
2022-12-31T21:33:04.663Z,839.4
2022-12-31T21:34:48.423Z,836.9
2022-12-31T21:36:32.085Z,836.6
2022-12-31T21:39:59.468Z,828.9
2022-12-31T21:41:43.165Z,826.1
2022-12-31T21:43:26.930Z,819.8
2022-12-31T21:45:10.612Z,816.2
2022-12-31T21:46:54.275Z,816.1
2022-12-31T21:48:37.992Z,814.3
2022-12-31T21:50:21.682Z,813.2
2022-12-31T21:52:05.363Z,810.8
2022-12-31T21:53:49.073Z,812.4
2022-12-31T21:55:32.769Z,810.5
2022-12-31T21:57:16.481Z,809.6
2022-12-31T21:59:00.197Z,807.2
2022-12-31T22:00:43.919Z,804.2
2022-12-31T22:02:27.764Z,801.3
2022-12-31T22:04:11.278Z,797.8
2022-12-31T22:05:54.983Z,797.8
2022-12-31T22:07:38.762Z,796.7
2022-12-31T22:09:22.396Z,793.6
2022-12-31T22:11:06.066Z,792.5
2022-12-31T22:12:49.805Z,790.2
2022-12-31T22:14:33.513Z,784.6
2022-12-31T22:16:17.253Z,781.7
2022-12-31T22:18:00.917Z,780.3
2022-12-31T22:19:44.581Z,780
2022-12-31T22:21:28.393Z,773.1
2022-12-31T22:23:11.989Z,766.5
2022-12-31T22:24:55.683Z,764.2